sensor_id;sensor_type;location;lat;lon;timestamp;temperature;humidity
8114;DHT22;4099;52.684;9.918;2023-11-19T00:02:44;5.80;99.90
8114;DHT22;4099;52.684;9.918;2023-11-19T00:07:46;5.80;99.90
8114;DHT22;4099;52.684;9.918;2023-11-19T00:12:49;5.80;99.90
8114;DHT22;4099;52.684;9.918;2023-11-19T00:17:51;5.80;99.90
8114;DHT22;4099;52.684;9.918;2023-11-19T00:22:53;5.90;99.90
8114;DHT22;4099;52.684;9.918;2023-11-19T00:27:56;5.90;99.90
8114;DHT22;4099;52.684;9.918;2023-11-19T00:32:58;5.90;99.90
8114;DHT22;4099;52.684;9.918;2023-11-19T00:38:00;5.90;99.90
8114;DHT22;4099;52.684;9.918;2023-11-19T00:43:04;5.90;99.90
8114;DHT22;4099;52.684;9.918;2023-11-19T00:48:06;5.90;99.90
8114;DHT22;4099;52.684;9.918;2023-11-19T00:53:08;6.00;99.90
8114;DHT22;4099;52.684;9.918;2023-11-19T00:58:11;5.90;99.90
8114;DHT22;4099;52.684;9.918;2023-11-19T01:03:13;6.00;99.90
8114;DHT22;4099;52.684;9.918;2023-11-19T01:08:15;6.00;99.90
8114;DHT22;4099;52.684;9.918;2023-11-19T01:13:19;6.00;99.90
8114;DHT22;4099;52.684;9.918;2023-11-19T01:18:20;6.00;99.90
8114;DHT22;4099;52.684;9.918;2023-11-19T01:23:22;6.10;99.90
8114;DHT22;4099;52.684;9.918;2023-11-19T01:28:25;6.10;99.90
8114;DHT22;4099;52.684;9.918;2023-11-19T01:33:27;6.10;99.90
8114;DHT22;4099;52.684;9.918;2023-11-19T01:38:29;6.20;99.90
8114;DHT22;4099;52.684;9.918;2023-11-19T01:43:33;6.20;99.90
8114;DHT22;4099;52.684;9.918;2023-11-19T01:48:36;6.20;99.90
8114;DHT22;4099;52.684;9.918;2023-11-19T01:53:40;6.20;99.90
8114;DHT22;4099;52.684;9.918;2023-11-19T01:58:44;6.30;99.90
8114;DHT22;4099;52.684;9.918;2023-11-19T02:03:46;6.40;99.90
8114;DHT22;4099;52.684;9.918;2023-11-19T02:08:49;6.40;99.90
8114;DHT22;4099;52.684;9.918;2023-11-19T02:13:53;6.50;99.90
8114;DHT22;4099;52.684;9.918;2023-11-19T02:18:56;6.50;99.90
8114;DHT22;4099;52.684;9.918;2023-11-19T02:23:58;6.50;99.90
8114;DHT22;4099;52.684;9.918;2023-11-19T02:29:01;6.60;99.90
8114;DHT22;4099;52.684;9.918;2023-11-19T02:34:04;6.50;99.90
8114;DHT22;4099;52.684;9.918;2023-11-19T02:39:07;6.70;99.90
8114;DHT22;4099;52.684;9.918;2023-11-19T02:44:14;6.80;99.90
8114;DHT22;4099;52.684;9.918;2023-11-19T02:49:15;6.90;99.90
8114;DHT22;4099;52.684;9.918;2023-11-19T02:54:17;6.90;99.90
8114;DHT22;4099;52.684;9.918;2023-11-19T02:59:21;7.00;99.90
8114;DHT22;4099;52.684;9.918;2023-11-19T03:04:28;7.10;99.90
8114;DHT22;4099;52.684;9.918;2023-11-19T03:09:31;7.10;99.90
8114;DHT22;4099;52.684;9.918;2023-11-19T03:14:35;7.30;99.90
8114;DHT22;4099;52.684;9.918;2023-11-19T03:19:37;7.30;99.90
8114;DHT22;4099;52.684;9.918;2023-11-19T03:24:39;7.40;99.90
8114;DHT22;4099;52.684;9.918;2023-11-19T03:29:42;7.40;99.90
8114;DHT22;4099;52.684;9.918;2023-11-19T03:34:45;7.60;99.90
8114;DHT22;4099;52.684;9.918;2023-11-19T03:39:46;7.70;99.90
8114;DHT22;4099;52.684;9.918;2023-11-19T03:44:50;7.80;99.90
8114;DHT22;4099;52.684;9.918;2023-11-19T03:49:53;7.90;99.90
8114;DHT22;4099;52.684;9.918;2023-11-19T03:54:55;8.00;99.90
8114;DHT22;4099;52.684;9.918;2023-11-19T03:59:59;8.10;99.90
8114;DHT22;4099;52.684;9.918;2023-11-19T04:05:03;8.10;99.90
8114;DHT22;4099;52.684;9.918;2023-11-19T04:10:06;8.20;99.90
8114;DHT22;4099;52.684;9.918;2023-11-19T04:15:11;8.30;99.90
8114;DHT22;4099;52.684;9.918;2023-11-19T04:20:13;8.40;99.90
8114;DHT22;4099;52.684;9.918;2023-11-19T04:25:15;8.40;99.90
8114;DHT22;4099;52.684;9.918;2023-11-19T04:30:18;8.50;99.90
8114;DHT22;4099;52.684;9.918;2023-11-19T04:35:20;8.50;99.90
8114;DHT22;4099;52.684;9.918;2023-11-19T04:40:22;8.50;99.90
8114;DHT22;4099;52.684;9.918;2023-11-19T04:45:25;8.60;99.90
8114;DHT22;4099;52.684;9.918;2023-11-19T04:50:27;8.70;99.90
8114;DHT22;4099;52.684;9.918;2023-11-19T04:55:29;8.70;99.90
8114;DHT22;4099;52.684;9.918;2023-11-19T05:00:32;8.80;99.90
8114;DHT22;4099;52.684;9.918;2023-11-19T05:05:34;8.90;99.90
8114;DHT22;4099;52.684;9.918;2023-11-19T05:10:36;9.00;99.90
8114;DHT22;4099;52.684;9.918;2023-11-19T05:15:39;9.10;99.90
8114;DHT22;4099;52.684;9.918;2023-11-19T05:20:41;9.10;99.90
8114;DHT22;4099;52.684;9.918;2023-11-19T05:25:43;9.20;99.90
8114;DHT22;4099;52.684;9.918;2023-11-19T05:30:47;9.30;99.90
8114;DHT22;4099;52.684;9.918;2023-11-19T05:35:49;9.40;99.90
8114;DHT22;4099;52.684;9.918;2023-11-19T05:40:51;9.50;99.90
8114;DHT22;4099;52.684;9.918;2023-11-19T05:45:54;9.70;99.90
8114;DHT22;4099;52.684;9.918;2023-11-19T05:50:56;9.80;99.90
8114;DHT22;4099;52.684;9.918;2023-11-19T05:55:58;10.10;99.90
8114;DHT22;4099;52.684;9.918;2023-11-19T06:01:06;10.30;99.90
8114;DHT22;4099;52.684;9.918;2023-11-19T06:06:09;10.30;99.90
8114;DHT22;4099;52.684;9.918;2023-11-19T06:11:12;10.40;99.90
8114;DHT22;4099;52.684;9.918;2023-11-19T06:16:20;10.40;99.90
8114;DHT22;4099;52.684;9.918;2023-11-19T06:21:22;10.50;99.90
8114;DHT22;4099;52.684;9.918;2023-11-19T06:26:23;10.60;99.90
8114;DHT22;4099;52.684;9.918;2023-11-19T06:31:27;10.60;99.90
8114;DHT22;4099;52.684;9.918;2023-11-19T06:36:28;10.70;99.90
8114;DHT22;4099;52.684;9.918;2023-11-19T06:41:30;10.70;99.90
8114;DHT22;4099;52.684;9.918;2023-11-19T06:46:33;10.70;99.90
8114;DHT22;4099;52.684;9.918;2023-11-19T06:51:35;10.70;99.90
8114;DHT22;4099;52.684;9.918;2023-11-19T06:56:42;10.70;99.90
8114;DHT22;4099;52.684;9.918;2023-11-19T07:01:45;10.80;99.90
8114;DHT22;4099;52.684;9.918;2023-11-19T07:06:47;10.90;99.90
8114;DHT22;4099;52.684;9.918;2023-11-19T07:11:50;10.80;99.90
8114;DHT22;4099;52.684;9.918;2023-11-19T07:16:53;10.80;99.90
8114;DHT22;4099;52.684;9.918;2023-11-19T07:21:56;10.70;99.90
8114;DHT22;4099;52.684;9.918;2023-11-19T07:26:58;10.80;99.90
8114;DHT22;4099;52.684;9.918;2023-11-19T07:32:01;10.80;99.90
8114;DHT22;4099;52.684;9.918;2023-11-19T07:37:03;10.90;99.90
8114;DHT22;4099;52.684;9.918;2023-11-19T07:42:05;10.90;99.90
8114;DHT22;4099;52.684;9.918;2023-11-19T07:47:08;10.90;99.90
8114;DHT22;4099;52.684;9.918;2023-11-19T07:52:10;10.90;99.90
8114;DHT22;4099;52.684;9.918;2023-11-19T07:57:12;11.00;99.90
8114;DHT22;4099;52.684;9.918;2023-11-19T08:02:15;11.00;99.90
8114;DHT22;4099;52.684;9.918;2023-11-19T08:07:18;11.00;99.90
8114;DHT22;4099;52.684;9.918;2023-11-19T08:12:20;11.10;99.90
8114;DHT22;4099;52.684;9.918;2023-11-19T08:17:23;11.10;99.90
8114;DHT22;4099;52.684;9.918;2023-11-19T08:22:25;11.10;99.90
8114;DHT22;4099;52.684;9.918;2023-11-19T08:27:27;11.00;99.90
8114;DHT22;4099;52.684;9.918;2023-11-19T08:32:30;11.00;99.90
8114;DHT22;4099;52.684;9.918;2023-11-19T08:37:32;11.10;99.90
8114;DHT22;4099;52.684;9.918;2023-11-19T08:42:33;11.10;99.90
8114;DHT22;4099;52.684;9.918;2023-11-19T08:47:37;11.10;99.90
8114;DHT22;4099;52.684;9.918;2023-11-19T08:52:40;11.10;99.90
8114;DHT22;4099;52.684;9.918;2023-11-19T08:57:42;11.10;99.90
8114;DHT22;4099;52.684;9.918;2023-11-19T09:02:45;11.20;99.90
8114;DHT22;4099;52.684;9.918;2023-11-19T09:07:47;11.50;99.90
8114;DHT22;4099;52.684;9.918;2023-11-19T09:12:50;11.70;99.90
8114;DHT22;4099;52.684;9.918;2023-11-19T09:17:53;11.80;99.90
8114;DHT22;4099;52.684;9.918;2023-11-19T09:22:55;11.80;99.90
8114;DHT22;4099;52.684;9.918;2023-11-19T09:27:57;11.90;99.90
8114;DHT22;4099;52.684;9.918;2023-11-19T09:33:00;12.10;99.90
8114;DHT22;4099;52.684;9.918;2023-11-19T09:38:02;12.00;99.90
8114;DHT22;4099;52.684;9.918;2023-11-19T09:43:06;11.90;99.90
8114;DHT22;4099;52.684;9.918;2023-11-19T09:48:10;11.90;99.90
8114;DHT22;4099;52.684;9.918;2023-11-19T09:53:13;11.60;99.90
8114;DHT22;4099;52.684;9.918;2023-11-19T09:58:15;11.20;99.90
8114;DHT22;4099;52.684;9.918;2023-11-19T10:03:19;11.10;99.90
8114;DHT22;4099;52.684;9.918;2023-11-19T10:08:21;11.00;99.90
8114;DHT22;4099;52.684;9.918;2023-11-19T10:13:26;10.80;99.90
8114;DHT22;4099;52.684;9.918;2023-11-19T10:18:29;10.60;99.90
8114;DHT22;4099;52.684;9.918;2023-11-19T10:23:31;10.50;99.90
8114;DHT22;4099;52.684;9.918;2023-11-19T10:28:46;10.30;99.90
8114;DHT22;4099;52.684;9.918;2023-11-19T10:33:50;10.40;99.90
8114;DHT22;4099;52.684;9.918;2023-11-19T10:38:53;10.40;99.90
8114;DHT22;4099;52.684;9.918;2023-11-19T10:43:55;10.60;99.90
8114;DHT22;4099;52.684;9.918;2023-11-19T10:48:58;10.90;99.90
8114;DHT22;4099;52.684;9.918;2023-11-19T10:54:03;10.90;99.90
8114;DHT22;4099;52.684;9.918;2023-11-19T10:59:06;10.90;99.90
8114;DHT22;4099;52.684;9.918;2023-11-19T11:04:14;11.00;99.90
8114;DHT22;4099;52.684;9.918;2023-11-19T11:09:17;11.10;99.90
8114;DHT22;4099;52.684;9.918;2023-11-19T11:14:21;11.20;99.90
8114;DHT22;4099;52.684;9.918;2023-11-19T11:19:25;11.20;99.90
8114;DHT22;4099;52.684;9.918;2023-11-19T11:24:44;11.30;99.90
8114;DHT22;4099;52.684;9.918;2023-11-19T11:29:57;11.30;99.90
8114;DHT22;4099;52.684;9.918;2023-11-19T11:35:17;11.40;99.90
8114;DHT22;4099;52.684;9.918;2023-11-19T11:40:21;11.50;99.90
8114;DHT22;4099;52.684;9.918;2023-11-19T11:45:35;11.70;99.90
8114;DHT22;4099;52.684;9.918;2023-11-19T11:50:55;11.80;99.90
8114;DHT22;4099;52.684;9.918;2023-11-19T11:55:58;11.80;99.90
8114;DHT22;4099;52.684;9.918;2023-11-19T12:01:03;11.90;99.90
8114;DHT22;4099;52.684;9.918;2023-11-19T12:06:07;11.90;99.90
8114;DHT22;4099;52.684;9.918;2023-11-19T12:11:10;11.90;99.90
8114;DHT22;4099;52.684;9.918;2023-11-19T12:16:12;12.30;99.90
8114;DHT22;4099;52.684;9.918;2023-11-19T12:21:29;12.60;99.90
8114;DHT22;4099;52.684;9.918;2023-11-19T12:26:33;12.70;99.90
8114;DHT22;4099;52.684;9.918;2023-11-19T12:31:35;12.50;99.90
8114;DHT22;4099;52.684;9.918;2023-11-19T12:36:41;12.40;99.90
8114;DHT22;4099;52.684;9.918;2023-11-19T12:41:51;12.30;99.90
8114;DHT22;4099;52.684;9.918;2023-11-19T12:47:00;12.20;99.90
8114;DHT22;4099;52.684;9.918;2023-11-19T12:52:11;12.30;99.90
8114;DHT22;4099;52.684;9.918;2023-11-19T12:57:13;12.10;99.90
8114;DHT22;4099;52.684;9.918;2023-11-19T13:02:15;12.00;99.90
8114;DHT22;4099;52.684;9.918;2023-11-19T13:07:22;12.00;99.90
8114;DHT22;4099;52.684;9.918;2023-11-19T13:12:23;11.90;99.90
8114;DHT22;4099;52.684;9.918;2023-11-19T13:17:25;11.90;99.90
8114;DHT22;4099;52.684;9.918;2023-11-19T13:22:29;11.90;99.90
8114;DHT22;4099;52.684;9.918;2023-11-19T13:27:31;11.90;99.90
8114;DHT22;4099;52.684;9.918;2023-11-19T13:32:33;11.80;99.90
8114;DHT22;4099;52.684;9.918;2023-11-19T13:37:36;11.70;99.90
8114;DHT22;4099;52.684;9.918;2023-11-19T13:42:39;11.50;99.90
8114;DHT22;4099;52.684;9.918;2023-11-19T13:47:42;11.30;99.90
8114;DHT22;4099;52.684;9.918;2023-11-19T13:52:46;11.20;99.90
8114;DHT22;4099;52.684;9.918;2023-11-19T13:57:48;11.10;99.90
8114;DHT22;4099;52.684;9.918;2023-11-19T14:02:50;11.00;99.90
8114;DHT22;4099;52.684;9.918;2023-11-19T14:07:53;11.10;99.90
8114;DHT22;4099;52.684;9.918;2023-11-19T14:12:57;11.20;99.90
8114;DHT22;4099;52.684;9.918;2023-11-19T14:17:59;11.20;99.90
8114;DHT22;4099;52.684;9.918;2023-11-19T14:23:02;11.20;99.90
8114;DHT22;4099;52.684;9.918;2023-11-19T14:28:04;11.10;99.90
8114;DHT22;4099;52.684;9.918;2023-11-19T14:33:06;11.10;99.90
8114;DHT22;4099;52.684;9.918;2023-11-19T14:38:09;11.00;99.90
8114;DHT22;4099;52.684;9.918;2023-11-19T14:43:12;10.90;99.90
8114;DHT22;4099;52.684;9.918;2023-11-19T14:48:16;10.90;99.90
8114;DHT22;4099;52.684;9.918;2023-11-19T14:53:20;10.80;99.90
8114;DHT22;4099;52.684;9.918;2023-11-19T14:58:23;10.70;99.90
8114;DHT22;4099;52.684;9.918;2023-11-19T15:03:26;10.60;99.90
8114;DHT22;4099;52.684;9.918;2023-11-19T15:08:29;10.50;99.90
8114;DHT22;4099;52.684;9.918;2023-11-19T15:13:31;10.50;99.90
8114;DHT22;4099;52.684;9.918;2023-11-19T15:18:34;10.30;99.90
8114;DHT22;4099;52.684;9.918;2023-11-19T15:23:37;10.10;99.90
8114;DHT22;4099;52.684;9.918;2023-11-19T15:28:39;9.80;99.90
8114;DHT22;4099;52.684;9.918;2023-11-19T15:33:41;9.70;99.90
8114;DHT22;4099;52.684;9.918;2023-11-19T15:38:44;9.60;99.90
8114;DHT22;4099;52.684;9.918;2023-11-19T15:43:46;9.60;99.90
8114;DHT22;4099;52.684;9.918;2023-11-19T15:48:48;9.50;99.90
8114;DHT22;4099;52.684;9.918;2023-11-19T15:53:51;9.50;99.90
8114;DHT22;4099;52.684;9.918;2023-11-19T15:58:53;9.50;99.90
8114;DHT22;4099;52.684;9.918;2023-11-19T16:03:55;9.40;99.90
8114;DHT22;4099;52.684;9.918;2023-11-19T16:08:58;9.50;99.90
8114;DHT22;4099;52.684;9.918;2023-11-19T16:14:00;9.50;99.90
8114;DHT22;4099;52.684;9.918;2023-11-19T16:19:03;9.60;99.90
8114;DHT22;4099;52.684;9.918;2023-11-19T16:24:08;9.50;99.90
8114;DHT22;4099;52.684;9.918;2023-11-19T16:29:10;9.50;99.90
8114;DHT22;4099;52.684;9.918;2023-11-19T16:34:12;9.50;99.90
8114;DHT22;4099;52.684;9.918;2023-11-19T16:39:16;9.40;99.90
8114;DHT22;4099;52.684;9.918;2023-11-19T16:44:18;9.40;99.90
8114;DHT22;4099;52.684;9.918;2023-11-19T16:49:20;9.50;99.90
8114;DHT22;4099;52.684;9.918;2023-11-19T16:54:24;9.50;99.90
8114;DHT22;4099;52.684;9.918;2023-11-19T16:59:26;9.50;99.90
8114;DHT22;4099;52.684;9.918;2023-11-19T17:04:28;9.50;99.90
8114;DHT22;4099;52.684;9.918;2023-11-19T17:09:31;9.40;99.90
8114;DHT22;4099;52.684;9.918;2023-11-19T17:14:33;9.40;99.90
8114;DHT22;4099;52.684;9.918;2023-11-19T17:19:35;9.30;99.90
8114;DHT22;4099;52.684;9.918;2023-11-19T17:24:38;9.40;99.90
8114;DHT22;4099;52.684;9.918;2023-11-19T17:29:40;9.40;99.90
8114;DHT22;4099;52.684;9.918;2023-11-19T17:34:42;9.50;99.90
8114;DHT22;4099;52.684;9.918;2023-11-19T17:39:45;9.60;99.90
8114;DHT22;4099;52.684;9.918;2023-11-19T17:44:47;9.60;99.90
8114;DHT22;4099;52.684;9.918;2023-11-19T17:49:49;9.60;99.90
8114;DHT22;4099;52.684;9.918;2023-11-19T17:54:52;9.70;99.90
8114;DHT22;4099;52.684;9.918;2023-11-19T17:59:54;9.70;99.90
8114;DHT22;4099;52.684;9.918;2023-11-19T18:04:56;9.70;99.90
8114;DHT22;4099;52.684;9.918;2023-11-19T18:09:59;9.80;99.90
8114;DHT22;4099;52.684;9.918;2023-11-19T18:15:02;9.80;99.90
8114;DHT22;4099;52.684;9.918;2023-11-19T18:20:05;9.80;99.90
8114;DHT22;4099;52.684;9.918;2023-11-19T18:25:10;9.90;99.90
8114;DHT22;4099;52.684;9.918;2023-11-19T18:30:13;9.90;99.90
8114;DHT22;4099;52.684;9.918;2023-11-19T18:35:15;9.90;99.90
8114;DHT22;4099;52.684;9.918;2023-11-19T18:40:25;9.90;99.90
8114;DHT22;4099;52.684;9.918;2023-11-19T18:45:27;9.90;99.90
8114;DHT22;4099;52.684;9.918;2023-11-19T18:50:29;9.90;99.90
8114;DHT22;4099;52.684;9.918;2023-11-19T18:55:32;9.90;99.90
8114;DHT22;4099;52.684;9.918;2023-11-19T19:00:34;9.90;99.90
8114;DHT22;4099;52.684;9.918;2023-11-19T19:05:36;9.90;99.90
8114;DHT22;4099;52.684;9.918;2023-11-19T19:10:39;9.90;99.90
8114;DHT22;4099;52.684;9.918;2023-11-19T19:15:41;10.00;99.90
8114;DHT22;4099;52.684;9.918;2023-11-19T19:20:43;9.90;99.90
8114;DHT22;4099;52.684;9.918;2023-11-19T19:25:46;9.90;99.90
8114;DHT22;4099;52.684;9.918;2023-11-19T19:30:48;9.90;99.90
8114;DHT22;4099;52.684;9.918;2023-11-19T19:35:50;9.90;99.90
8114;DHT22;4099;52.684;9.918;2023-11-19T19:40:54;9.90;99.90
8114;DHT22;4099;52.684;9.918;2023-11-19T19:45:56;9.90;99.90
8114;DHT22;4099;52.684;9.918;2023-11-19T19:50:57;9.80;99.90
8114;DHT22;4099;52.684;9.918;2023-11-19T19:56:01;9.90;99.90
8114;DHT22;4099;52.684;9.918;2023-11-19T20:01:04;9.80;99.90
8114;DHT22;4099;52.684;9.918;2023-11-19T20:06:07;9.90;99.90
8114;DHT22;4099;52.684;9.918;2023-11-19T20:11:13;9.90;99.90
8114;DHT22;4099;52.684;9.918;2023-11-19T20:16:15;9.90;99.90
8114;DHT22;4099;52.684;9.918;2023-11-19T20:21:18;9.90;99.90
8114;DHT22;4099;52.684;9.918;2023-11-19T20:26:21;9.90;99.90
8114;DHT22;4099;52.684;9.918;2023-11-19T20:31:23;9.90;99.90
8114;DHT22;4099;52.684;9.918;2023-11-19T20:36:25;10.00;99.90
8114;DHT22;4099;52.684;9.918;2023-11-19T20:41:29;9.90;99.90
8114;DHT22;4099;52.684;9.918;2023-11-19T20:46:30;9.90;99.90
8114;DHT22;4099;52.684;9.918;2023-11-19T20:51:32;9.90;99.90
8114;DHT22;4099;52.684;9.918;2023-11-19T20:56:35;9.90;99.90
8114;DHT22;4099;52.684;9.918;2023-11-19T21:01:38;9.90;99.90
8114;DHT22;4099;52.684;9.918;2023-11-19T21:06:39;9.90;99.90
8114;DHT22;4099;52.684;9.918;2023-11-19T21:11:42;9.90;99.90
8114;DHT22;4099;52.684;9.918;2023-11-19T21:16:44;9.80;99.90
8114;DHT22;4099;52.684;9.918;2023-11-19T21:21:46;9.80;99.90
8114;DHT22;4099;52.684;9.918;2023-11-19T21:26:49;9.80;99.90
8114;DHT22;4099;52.684;9.918;2023-11-19T21:31:51;9.80;99.90
8114;DHT22;4099;52.684;9.918;2023-11-19T21:36:53;9.80;99.90
8114;DHT22;4099;52.684;9.918;2023-11-19T21:41:56;9.90;99.90
8114;DHT22;4099;52.684;9.918;2023-11-19T21:46:58;9.80;99.90
8114;DHT22;4099;52.684;9.918;2023-11-19T21:52:00;9.90;99.90
8114;DHT22;4099;52.684;9.918;2023-11-19T21:57:03;9.90;99.90
8114;DHT22;4099;52.684;9.918;2023-11-19T22:02:05;10.00;99.90
8114;DHT22;4099;52.684;9.918;2023-11-19T22:07:08;10.00;99.90
8114;DHT22;4099;52.684;9.918;2023-11-19T22:12:11;10.00;99.90
8114;DHT22;4099;52.684;9.918;2023-11-19T22:17:13;10.00;99.90
8114;DHT22;4099;52.684;9.918;2023-11-19T22:22:15;10.00;99.90
8114;DHT22;4099;52.684;9.918;2023-11-19T22:27:18;10.10;99.90
8114;DHT22;4099;52.684;9.918;2023-11-19T22:32:20;10.10;99.90
8114;DHT22;4099;52.684;9.918;2023-11-19T22:37:23;10.00;99.90
8114;DHT22;4099;52.684;9.918;2023-11-19T22:42:26;10.10;99.90
8114;DHT22;4099;52.684;9.918;2023-11-19T22:47:28;10.00;99.90
8114;DHT22;4099;52.684;9.918;2023-11-19T22:52:30;10.20;99.90
8114;DHT22;4099;52.684;9.918;2023-11-19T22:57:33;10.10;99.90
8114;DHT22;4099;52.684;9.918;2023-11-19T23:02:36;10.10;99.90
8114;DHT22;4099;52.684;9.918;2023-11-19T23:07:38;10.10;99.90
8114;DHT22;4099;52.684;9.918;2023-11-19T23:12:41;10.10;99.90
8114;DHT22;4099;52.684;9.918;2023-11-19T23:17:43;10.10;99.90
8114;DHT22;4099;52.684;9.918;2023-11-19T23:22:45;10.10;99.90
8114;DHT22;4099;52.684;9.918;2023-11-19T23:27:48;10.20;99.90
8114;DHT22;4099;52.684;9.918;2023-11-19T23:32:50;10.20;99.90
8114;DHT22;4099;52.684;9.918;2023-11-19T23:37:52;10.10;99.90
8114;DHT22;4099;52.684;9.918;2023-11-19T23:42:55;10.10;99.90
8114;DHT22;4099;52.684;9.918;2023-11-19T23:47:57;10.10;99.90
8114;DHT22;4099;52.684;9.918;2023-11-19T23:52:59;10.20;99.90
8114;DHT22;4099;52.684;9.918;2023-11-19T23:58:02;10.20;99.90
